OIBL  Bandar Lengeh  Airport

Bandar Lengeh, Iran

Add Bookmark
ICAO OIBL
IATA BDH
Type Airport
Status Operational
Latitude
26° 31' 55" N
26.532000
Longitude
54° 49' 29" E
54.824799
Local (DST + 5) UTC (GMT + 4)
May 28, 2015 08:19 May 28, 2015 03:49
Sunrise-Sunset Local UTC
Begin Civil Twilight 05:31 01:01
Sunrise 05:57 01:27
Sunset 07:38 15:08
End Civil Twilight 08:04 15:34
VFR
VFR
MVFR
MVFR
IFR
VFR
LIFR
VFR
Unknown
Unavailable

Current Weather

METAR Observed MVFR
OIBL 280300Z 09010KT 5000 HZ NSC 29/25 Q1002 Thu, May 28, 2015 @ 03:00 UTC
(49 Minutes ago)
Marginal Visual Flight Rules
Wind Visibility Conditions
090° at 10 knots (19 kph) 5,005 m
  • Haze
Temperatures Readings Precipitation
Current Temp
29°C
84°F
Dewpoint
25°C
77°F
Heat Index
34°C
94°
Humidity 79%
Altimeter 29.59" Hg
Sea Level Pressure 1,002 mb
Field Elevation
14 m
46 ft
None Recorded

Additional weather within a 92.6km radius of OIBL

Map ICAO Location
OIBS 74.8km S/SW (202°)
OIBA 75.9km S/SE (164°)
VFR
VFR
MVFR
MVFR
IFR
VFR
LIFR
VFR
Unknown
Unavailable
-
-

CheckWX.com is intended as a tool to help pilots better visualize weather data. It is not intended as a substitute for an official weather briefing obtained from a Flight Service Station. CheckWX.com does not meet the FAA requirements for an official pre-flight weather briefing. Therefore, it's important that pilots still call and obtain an official FSS pre-flight weather briefing.

© 2007-2015 CheckWX.com
03:49:56 UTC